sensor_id;sensor_type;location;lat;lon;timestamp;temperature;humidity
16513;DHT22;8369;48.030;11.598;2024-01-30T00:00:16;-0.30;99.90
16513;DHT22;8369;48.030;11.598;2024-01-30T00:02:54;-0.40;99.90
16513;DHT22;8369;48.030;11.598;2024-01-30T00:05:25;-0.40;99.90
16513;DHT22;8369;48.030;11.598;2024-01-30T00:07:54;-0.40;99.90
16513;DHT22;8369;48.030;11.598;2024-01-30T00:10:22;-0.40;99.90
16513;DHT22;8369;48.030;11.598;2024-01-30T00:12:51;-0.40;99.90
16513;DHT22;8369;48.030;11.598;2024-01-30T00:15:18;-0.40;99.90
16513;DHT22;8369;48.030;11.598;2024-01-30T00:17:44;-0.40;99.90
16513;DHT22;8369;48.030;11.598;2024-01-30T00:20:10;-0.50;99.90
16513;DHT22;8369;48.030;11.598;2024-01-30T00:22:36;-0.50;99.90
16513;DHT22;8369;48.030;11.598;2024-01-30T00:25:02;-0.50;99.90
16513;DHT22;8369;48.030;11.598;2024-01-30T00:27:28;-0.50;99.90
16513;DHT22;8369;48.030;11.598;2024-01-30T00:29:57;-0.50;99.90
16513;DHT22;8369;48.030;11.598;2024-01-30T00:32:22;-0.50;99.90
16513;DHT22;8369;48.030;11.598;2024-01-30T00:34:49;-0.50;99.90
16513;DHT22;8369;48.030;11.598;2024-01-30T00:37:15;-0.50;99.90
16513;DHT22;8369;48.030;11.598;2024-01-30T00:39:42;-0.50;99.90
16513;DHT22;8369;48.030;11.598;2024-01-30T00:42:10;-0.50;99.90
16513;DHT22;8369;48.030;11.598;2024-01-30T00:44:36;-0.50;99.90
16513;DHT22;8369;48.030;11.598;2024-01-30T00:47:04;-0.50;99.90
16513;DHT22;8369;48.030;11.598;2024-01-30T00:49:31;-0.60;99.90
16513;DHT22;8369;48.030;11.598;2024-01-30T00:51:57;-0.60;99.90
16513;DHT22;8369;48.030;11.598;2024-01-30T00:54:23;-0.60;99.90
16513;DHT22;8369;48.030;11.598;2024-01-30T00:56:49;-0.60;99.90
16513;DHT22;8369;48.030;11.598;2024-01-30T00:59:16;-0.60;99.90
16513;DHT22;8369;48.030;11.598;2024-01-30T01:01:42;-0.60;99.90
16513;DHT22;8369;48.030;11.598;2024-01-30T01:04:08;-0.60;99.90
16513;DHT22;8369;48.030;11.598;2024-01-30T01:06:34;-0.60;99.90
16513;DHT22;8369;48.030;11.598;2024-01-30T01:09:00;-0.60;99.90
16513;DHT22;8369;48.030;11.598;2024-01-30T01:11:26;-0.60;99.90
16513;DHT22;8369;48.030;11.598;2024-01-30T01:13:51;-0.70;99.90
16513;DHT22;8369;48.030;11.598;2024-01-30T01:16:20;-0.70;99.90
16513;DHT22;8369;48.030;11.598;2024-01-30T01:18:46;-0.70;99.90
16513;DHT22;8369;48.030;11.598;2024-01-30T01:21:11;-0.70;99.90
16513;DHT22;8369;48.030;11.598;2024-01-30T01:23:38;-0.70;99.90
16513;DHT22;8369;48.030;11.598;2024-01-30T01:26:04;-0.70;99.90
16513;DHT22;8369;48.030;11.598;2024-01-30T01:28:40;-0.80;99.90
16513;DHT22;8369;48.030;11.598;2024-01-30T01:31:06;-0.80;99.90
16513;DHT22;8369;48.030;11.598;2024-01-30T01:33:34;-0.80;99.90
16513;DHT22;8369;48.030;11.598;2024-01-30T01:36:02;-0.80;99.90
16513;DHT22;8369;48.030;11.598;2024-01-30T01:38:28;-0.80;99.90
16513;DHT22;8369;48.030;11.598;2024-01-30T01:40:55;-0.80;99.90
16513;DHT22;8369;48.030;11.598;2024-01-30T01:43:26;-0.80;99.90
16513;DHT22;8369;48.030;11.598;2024-01-30T01:45:52;-0.80;99.90
16513;DHT22;8369;48.030;11.598;2024-01-30T01:48:17;-0.80;99.90
16513;DHT22;8369;48.030;11.598;2024-01-30T01:50:43;-0.80;99.90
16513;DHT22;8369;48.030;11.598;2024-01-30T01:53:09;-0.80;99.90
16513;DHT22;8369;48.030;11.598;2024-01-30T01:55:35;-0.80;99.90
16513;DHT22;8369;48.030;11.598;2024-01-30T01:58:01;-0.80;99.90
16513;DHT22;8369;48.030;11.598;2024-01-30T02:00:27;-0.80;99.90
16513;DHT22;8369;48.030;11.598;2024-01-30T02:02:54;-0.80;99.90
16513;DHT22;8369;48.030;11.598;2024-01-30T02:05:23;-0.80;99.90
16513;DHT22;8369;48.030;11.598;2024-01-30T02:07:50;-0.90;99.90
16513;DHT22;8369;48.030;11.598;2024-01-30T02:10:17;-0.90;99.90
16513;DHT22;8369;48.030;11.598;2024-01-30T02:12:46;-0.90;99.90
16513;DHT22;8369;48.030;11.598;2024-01-30T02:15:13;-0.90;99.90
16513;DHT22;8369;48.030;11.598;2024-01-30T02:17:42;-0.90;99.90
16513;DHT22;8369;48.030;11.598;2024-01-30T02:20:09;-0.90;99.90
16513;DHT22;8369;48.030;11.598;2024-01-30T02:22:36;-0.90;99.90
16513;DHT22;8369;48.030;11.598;2024-01-30T02:25:03;-0.90;99.90
16513;DHT22;8369;48.030;11.598;2024-01-30T02:27:31;-0.90;99.90
16513;DHT22;8369;48.030;11.598;2024-01-30T02:30:00;-0.90;99.90
16513;DHT22;8369;48.030;11.598;2024-01-30T02:32:26;-0.90;99.90
16513;DHT22;8369;48.030;11.598;2024-01-30T02:34:54;-0.90;99.90
16513;DHT22;8369;48.030;11.598;2024-01-30T02:37:23;-0.90;99.90
16513;DHT22;8369;48.030;11.598;2024-01-30T02:39:49;-0.90;99.90
16513;DHT22;8369;48.030;11.598;2024-01-30T02:42:15;-0.90;99.90
16513;DHT22;8369;48.030;11.598;2024-01-30T02:44:42;-0.90;99.90
16513;DHT22;8369;48.030;11.598;2024-01-30T02:47:08;-1.00;99.90
16513;DHT22;8369;48.030;11.598;2024-01-30T02:49:33;-1.00;99.90
16513;DHT22;8369;48.030;11.598;2024-01-30T02:52:03;-1.00;99.90
16513;DHT22;8369;48.030;11.598;2024-01-30T02:54:29;-1.00;99.90
16513;DHT22;8369;48.030;11.598;2024-01-30T02:56:57;-1.00;99.90
16513;DHT22;8369;48.030;11.598;2024-01-30T02:59:26;-1.10;99.90
16513;DHT22;8369;48.030;11.598;2024-01-30T03:01:54;-1.10;99.90
16513;DHT22;8369;48.030;11.598;2024-01-30T03:04:20;-1.10;99.90
16513;DHT22;8369;48.030;11.598;2024-01-30T03:06:48;-1.10;99.90
16513;DHT22;8369;48.030;11.598;2024-01-30T03:09:16;-1.10;99.90
16513;DHT22;8369;48.030;11.598;2024-01-30T03:11:45;-1.10;99.90
16513;DHT22;8369;48.030;11.598;2024-01-30T03:14:14;-1.10;99.90
16513;DHT22;8369;48.030;11.598;2024-01-30T03:16:40;-1.10;99.90
16513;DHT22;8369;48.030;11.598;2024-01-30T03:19:08;-1.10;99.90
16513;DHT22;8369;48.030;11.598;2024-01-30T03:21:52;-1.10;99.90
16513;DHT22;8369;48.030;11.598;2024-01-30T03:24:18;-1.10;99.90
16513;DHT22;8369;48.030;11.598;2024-01-30T03:26:44;-1.10;99.90
16513;DHT22;8369;48.030;11.598;2024-01-30T03:29:14;-1.10;99.90
16513;DHT22;8369;48.030;11.598;2024-01-30T03:31:44;-1.10;99.90
16513;DHT22;8369;48.030;11.598;2024-01-30T03:34:10;-1.10;99.90
16513;DHT22;8369;48.030;11.598;2024-01-30T03:36:39;-1.10;99.90
16513;DHT22;8369;48.030;11.598;2024-01-30T03:39:05;-1.10;99.90
16513;DHT22;8369;48.030;11.598;2024-01-30T03:41:34;-1.10;99.90
16513;DHT22;8369;48.030;11.598;2024-01-30T03:44:00;-1.10;99.90
16513;DHT22;8369;48.030;11.598;2024-01-30T03:46:26;-1.10;99.90
16513;DHT22;8369;48.030;11.598;2024-01-30T03:48:54;-1.10;99.90
16513;DHT22;8369;48.030;11.598;2024-01-30T03:51:20;-1.10;99.90
16513;DHT22;8369;48.030;11.598;2024-01-30T03:53:46;-1.20;99.90
16513;DHT22;8369;48.030;11.598;2024-01-30T03:56:12;-1.20;99.90
16513;DHT22;8369;48.030;11.598;2024-01-30T03:58:40;-1.20;99.90
16513;DHT22;8369;48.030;11.598;2024-01-30T04:01:07;-1.20;99.90
16513;DHT22;8369;48.030;11.598;2024-01-30T04:03:33;-1.20;99.90
16513;DHT22;8369;48.030;11.598;2024-01-30T04:05:59;-1.20;99.90
16513;DHT22;8369;48.030;11.598;2024-01-30T04:08:28;-1.20;99.90
16513;DHT22;8369;48.030;11.598;2024-01-30T04:10:55;-1.20;99.90
16513;DHT22;8369;48.030;11.598;2024-01-30T04:13:21;-1.20;99.90
16513;DHT22;8369;48.030;11.598;2024-01-30T04:15:47;-1.20;99.90
16513;DHT22;8369;48.030;11.598;2024-01-30T04:18:15;-1.20;99.90
16513;DHT22;8369;48.030;11.598;2024-01-30T04:20:41;-1.30;99.90
16513;DHT22;8369;48.030;11.598;2024-01-30T04:23:10;-1.30;99.90
16513;DHT22;8369;48.030;11.598;2024-01-30T04:25:36;-1.30;99.90
16513;DHT22;8369;48.030;11.598;2024-01-30T04:28:02;-1.30;99.90
16513;DHT22;8369;48.030;11.598;2024-01-30T04:30:28;-1.30;99.90
16513;DHT22;8369;48.030;11.598;2024-01-30T04:32:53;-1.20;99.90
16513;DHT22;8369;48.030;11.598;2024-01-30T04:35:20;-1.30;99.90
16513;DHT22;8369;48.030;11.598;2024-01-30T04:37:49;-1.30;99.90
16513;DHT22;8369;48.030;11.598;2024-01-30T04:40:14;-1.30;99.90
16513;DHT22;8369;48.030;11.598;2024-01-30T04:42:40;-1.30;99.90
16513;DHT22;8369;48.030;11.598;2024-01-30T04:45:06;-1.30;99.90
16513;DHT22;8369;48.030;11.598;2024-01-30T04:47:32;-1.30;99.90
16513;DHT22;8369;48.030;11.598;2024-01-30T04:49:58;-1.30;99.90
16513;DHT22;8369;48.030;11.598;2024-01-30T04:52:24;-1.30;99.90
16513;DHT22;8369;48.030;11.598;2024-01-30T04:54:50;-1.30;99.90
16513;DHT22;8369;48.030;11.598;2024-01-30T04:57:16;-1.40;99.90
16513;DHT22;8369;48.030;11.598;2024-01-30T04:59:42;-1.40;99.90
16513;DHT22;8369;48.030;11.598;2024-01-30T05:02:08;-1.40;99.90
16513;DHT22;8369;48.030;11.598;2024-01-30T05:04:34;-1.40;99.90
16513;DHT22;8369;48.030;11.598;2024-01-30T05:07:06;-1.40;99.90
16513;DHT22;8369;48.030;11.598;2024-01-30T05:09:37;-1.40;99.90
16513;DHT22;8369;48.030;11.598;2024-01-30T05:12:04;-1.40;99.90
16513;DHT22;8369;48.030;11.598;2024-01-30T05:14:29;-1.40;99.90
16513;DHT22;8369;48.030;11.598;2024-01-30T05:16:55;-1.40;99.90
16513;DHT22;8369;48.030;11.598;2024-01-30T05:19:21;-1.40;99.90
16513;DHT22;8369;48.030;11.598;2024-01-30T05:21:51;-1.40;99.90
16513;DHT22;8369;48.030;11.598;2024-01-30T05:24:17;-1.40;99.90
16513;DHT22;8369;48.030;11.598;2024-01-30T05:26:47;-1.40;99.90
16513;DHT22;8369;48.030;11.598;2024-01-30T05:29:13;-1.30;99.90
16513;DHT22;8369;48.030;11.598;2024-01-30T05:31:39;-1.40;99.90
16513;DHT22;8369;48.030;11.598;2024-01-30T05:34:05;-1.40;99.90
16513;DHT22;8369;48.030;11.598;2024-01-30T05:36:32;-1.40;99.90
16513;DHT22;8369;48.030;11.598;2024-01-30T05:38:58;-1.40;99.90
16513;DHT22;8369;48.030;11.598;2024-01-30T05:41:24;-1.40;99.90
16513;DHT22;8369;48.030;11.598;2024-01-30T05:43:52;-1.40;99.90
16513;DHT22;8369;48.030;11.598;2024-01-30T05:46:19;-1.40;99.90
16513;DHT22;8369;48.030;11.598;2024-01-30T05:48:45;-1.40;99.90
16513;DHT22;8369;48.030;11.598;2024-01-30T05:51:11;-1.40;99.90
16513;DHT22;8369;48.030;11.598;2024-01-30T05:53:39;-1.40;99.90
16513;DHT22;8369;48.030;11.598;2024-01-30T05:56:08;-1.40;99.90
16513;DHT22;8369;48.030;11.598;2024-01-30T05:58:34;-1.40;99.90
16513;DHT22;8369;48.030;11.598;2024-01-30T06:01:00;-1.50;99.90
16513;DHT22;8369;48.030;11.598;2024-01-30T06:03:29;-1.50;99.90
16513;DHT22;8369;48.030;11.598;2024-01-30T06:05:55;-1.50;99.90
16513;DHT22;8369;48.030;11.598;2024-01-30T06:08:23;-1.50;99.90
16513;DHT22;8369;48.030;11.598;2024-01-30T06:10:49;-1.50;99.90
16513;DHT22;8369;48.030;11.598;2024-01-30T06:13:15;-1.50;99.90
16513;DHT22;8369;48.030;11.598;2024-01-30T06:15:50;-1.50;99.90
16513;DHT22;8369;48.030;11.598;2024-01-30T06:18:16;-1.50;99.90
16513;DHT22;8369;48.030;11.598;2024-01-30T06:20:57;-1.50;99.90
16513;DHT22;8369;48.030;11.598;2024-01-30T06:23:25;-1.40;99.90
16513;DHT22;8369;48.030;11.598;2024-01-30T06:25:53;-1.50;99.90
16513;DHT22;8369;48.030;11.598;2024-01-30T06:28:19;-1.50;99.90
16513;DHT22;8369;48.030;11.598;2024-01-30T06:30:45;-1.50;99.90
16513;DHT22;8369;48.030;11.598;2024-01-30T06:33:14;-1.50;99.90
16513;DHT22;8369;48.030;11.598;2024-01-30T06:35:40;-1.50;99.90
16513;DHT22;8369;48.030;11.598;2024-01-30T06:38:06;-1.50;99.90
16513;DHT22;8369;48.030;11.598;2024-01-30T06:40:35;-1.50;99.90
16513;DHT22;8369;48.030;11.598;2024-01-30T06:43:02;-1.50;99.90
16513;DHT22;8369;48.030;11.598;2024-01-30T06:45:27;-1.50;99.90
16513;DHT22;8369;48.030;11.598;2024-01-30T06:47:53;-1.50;99.90
16513;DHT22;8369;48.030;11.598;2024-01-30T06:50:19;-1.50;99.90
16513;DHT22;8369;48.030;11.598;2024-01-30T06:52:45;-1.50;99.90
16513;DHT22;8369;48.030;11.598;2024-01-30T06:55:11;-1.50;99.90
16513;DHT22;8369;48.030;11.598;2024-01-30T06:57:38;-1.50;99.90
16513;DHT22;8369;48.030;11.598;2024-01-30T07:00:05;-1.40;99.90
16513;DHT22;8369;48.030;11.598;2024-01-30T07:02:32;-1.40;99.90
16513;DHT22;8369;48.030;11.598;2024-01-30T07:04:59;-1.40;99.90
16513;DHT22;8369;48.030;11.598;2024-01-30T07:07:27;-1.40;99.90
16513;DHT22;8369;48.030;11.598;2024-01-30T07:09:58;-1.40;99.90
16513;DHT22;8369;48.030;11.598;2024-01-30T07:12:25;-1.40;99.90
16513;DHT22;8369;48.030;11.598;2024-01-30T07:14:52;-1.40;99.90
16513;DHT22;8369;48.030;11.598;2024-01-30T07:17:19;-1.40;99.90
16513;DHT22;8369;48.030;11.598;2024-01-30T07:19:47;-1.30;99.90
16513;DHT22;8369;48.030;11.598;2024-01-30T07:22:15;-1.30;99.90
16513;DHT22;8369;48.030;11.598;2024-01-30T07:24:43;-1.30;99.90
16513;DHT22;8369;48.030;11.598;2024-01-30T07:27:18;-1.30;99.90
16513;DHT22;8369;48.030;11.598;2024-01-30T07:29:46;-1.20;99.90
16513;DHT22;8369;48.030;11.598;2024-01-30T07:32:13;-1.20;99.90
16513;DHT22;8369;48.030;11.598;2024-01-30T07:34:41;-1.20;99.90
16513;DHT22;8369;48.030;11.598;2024-01-30T07:37:09;-1.20;99.90
16513;DHT22;8369;48.030;11.598;2024-01-30T07:39:37;-1.10;99.90
16513;DHT22;8369;48.030;11.598;2024-01-30T07:42:04;-1.10;99.90
16513;DHT22;8369;48.030;11.598;2024-01-30T07:44:32;-1.00;99.90
16513;DHT22;8369;48.030;11.598;2024-01-30T07:46:59;-1.00;99.90
16513;DHT22;8369;48.030;11.598;2024-01-30T07:49:26;-0.90;99.90
16513;DHT22;8369;48.030;11.598;2024-01-30T07:51:54;-0.90;99.90
16513;DHT22;8369;48.030;11.598;2024-01-30T07:54:22;-0.90;99.90
16513;DHT22;8369;48.030;11.598;2024-01-30T07:56:50;-0.80;99.90
16513;DHT22;8369;48.030;11.598;2024-01-30T07:59:17;-0.80;99.90
16513;DHT22;8369;48.030;11.598;2024-01-30T08:01:45;-0.70;99.90
16513;DHT22;8369;48.030;11.598;2024-01-30T08:04:13;-0.60;99.90
16513;DHT22;8369;48.030;11.598;2024-01-30T08:06:40;-0.50;99.90
16513;DHT22;8369;48.030;11.598;2024-01-30T08:09:07;-0.40;99.90
16513;DHT22;8369;48.030;11.598;2024-01-30T08:11:35;-0.40;99.90
16513;DHT22;8369;48.030;11.598;2024-01-30T08:14:01;-0.30;99.90
16513;DHT22;8369;48.030;11.598;2024-01-30T08:16:27;-0.20;99.90
16513;DHT22;8369;48.030;11.598;2024-01-30T08:18:53;-0.10;99.90
16513;DHT22;8369;48.030;11.598;2024-01-30T08:21:22;0.00;99.90
16513;DHT22;8369;48.030;11.598;2024-01-30T08:23:51;0.10;99.90
16513;DHT22;8369;48.030;11.598;2024-01-30T08:26:18;0.20;99.90
16513;DHT22;8369;48.030;11.598;2024-01-30T08:28:44;0.30;99.90
16513;DHT22;8369;48.030;11.598;2024-01-30T08:31:10;0.40;99.90
16513;DHT22;8369;48.030;11.598;2024-01-30T08:33:40;0.60;99.90
16513;DHT22;8369;48.030;11.598;2024-01-30T08:36:06;0.70;99.90
16513;DHT22;8369;48.030;11.598;2024-01-30T08:38:33;0.80;99.90
16513;DHT22;8369;48.030;11.598;2024-01-30T08:40:59;0.90;99.90
16513;DHT22;8369;48.030;11.598;2024-01-30T08:43:26;1.00;99.90
16513;DHT22;8369;48.030;11.598;2024-01-30T08:45:53;1.20;99.90
16513;DHT22;8369;48.030;11.598;2024-01-30T08:48:19;1.30;99.90
16513;DHT22;8369;48.030;11.598;2024-01-30T08:50:47;1.40;99.90
16513;DHT22;8369;48.030;11.598;2024-01-30T08:53:14;1.60;99.90
16513;DHT22;8369;48.030;11.598;2024-01-30T08:55:40;1.70;99.90
16513;DHT22;8369;48.030;11.598;2024-01-30T08:58:07;1.80;99.90
16513;DHT22;8369;48.030;11.598;2024-01-30T09:00:34;2.00;99.90
16513;DHT22;8369;48.030;11.598;2024-01-30T09:03:01;2.10;99.90
16513;DHT22;8369;48.030;11.598;2024-01-30T09:05:28;2.30;99.90
16513;DHT22;8369;48.030;11.598;2024-01-30T09:08:11;2.40;99.90
16513;DHT22;8369;48.030;11.598;2024-01-30T09:10:40;2.60;99.90
16513;DHT22;8369;48.030;11.598;2024-01-30T09:13:07;2.70;99.90
16513;DHT22;8369;48.030;11.598;2024-01-30T09:15:34;2.80;99.90
16513;DHT22;8369;48.030;11.598;2024-01-30T09:18:04;2.90;99.90
16513;DHT22;8369;48.030;11.598;2024-01-30T09:20:34;3.10;99.90
16513;DHT22;8369;48.030;11.598;2024-01-30T09:23:01;3.20;99.90
16513;DHT22;8369;48.030;11.598;2024-01-30T09:25:28;3.40;99.90
16513;DHT22;8369;48.030;11.598;2024-01-30T09:27:54;3.50;99.90
16513;DHT22;8369;48.030;11.598;2024-01-30T09:30:21;3.70;99.90
16513;DHT22;8369;48.030;11.598;2024-01-30T09:32:47;3.90;99.90
16513;DHT22;8369;48.030;11.598;2024-01-30T09:35:15;4.00;99.90
16513;DHT22;8369;48.030;11.598;2024-01-30T09:37:41;4.20;99.90
16513;DHT22;8369;48.030;11.598;2024-01-30T09:40:08;4.30;99.90
16513;DHT22;8369;48.030;11.598;2024-01-30T09:42:36;4.50;99.90
16513;DHT22;8369;48.030;11.598;2024-01-30T09:45:07;4.70;99.90
16513;DHT22;8369;48.030;11.598;2024-01-30T09:47:44;4.80;99.90
16513;DHT22;8369;48.030;11.598;2024-01-30T09:50:13;5.00;99.90
16513;DHT22;8369;48.030;11.598;2024-01-30T09:52:40;5.10;99.90
16513;DHT22;8369;48.030;11.598;2024-01-30T09:55:08;5.30;99.90
16513;DHT22;8369;48.030;11.598;2024-01-30T09:57:35;5.40;99.90
16513;DHT22;8369;48.030;11.598;2024-01-30T10:00:06;5.60;99.90
16513;DHT22;8369;48.030;11.598;2024-01-30T10:02:36;5.70;99.90
16513;DHT22;8369;48.030;11.598;2024-01-30T10:05:03;5.90;99.90
16513;DHT22;8369;48.030;11.598;2024-01-30T10:07:30;6.00;99.90
16513;DHT22;8369;48.030;11.598;2024-01-30T10:09:57;6.20;99.90
16513;DHT22;8369;48.030;11.598;2024-01-30T10:12:26;6.30;99.90
16513;DHT22;8369;48.030;11.598;2024-01-30T10:14:53;6.40;99.90
16513;DHT22;8369;48.030;11.598;2024-01-30T10:17:20;6.60;99.90
16513;DHT22;8369;48.030;11.598;2024-01-30T10:19:47;6.70;99.90
16513;DHT22;8369;48.030;11.598;2024-01-30T10:22:14;6.80;99.90
16513;DHT22;8369;48.030;11.598;2024-01-30T10:24:41;6.90;99.90
16513;DHT22;8369;48.030;11.598;2024-01-30T10:27:08;7.10;99.90
16513;DHT22;8369;48.030;11.598;2024-01-30T10:29:35;7.20;99.90
16513;DHT22;8369;48.030;11.598;2024-01-30T10:32:04;7.20;99.90
16513;DHT22;8369;48.030;11.598;2024-01-30T10:34:32;7.30;99.90
16513;DHT22;8369;48.030;11.598;2024-01-30T10:37:08;7.50;99.90
16513;DHT22;8369;48.030;11.598;2024-01-30T10:39:47;7.60;99.90
16513;DHT22;8369;48.030;11.598;2024-01-30T10:42:17;7.70;99.90
16513;DHT22;8369;48.030;11.598;2024-01-30T10:47:18;7.90;99.90
16513;DHT22;8369;48.030;11.598;2024-01-30T10:49:45;7.90;95.00
16513;DHT22;8369;48.030;11.598;2024-01-30T10:52:13;7.90;97.00
16513;DHT22;8369;48.030;11.598;2024-01-30T10:54:43;7.90;97.10
16513;DHT22;8369;48.030;11.598;2024-01-30T10:57:11;7.90;97.90
16513;DHT22;8369;48.030;11.598;2024-01-30T10:59:39;7.90;98.00
16513;DHT22;8369;48.030;11.598;2024-01-30T11:02:06;7.90;97.70
16513;DHT22;8369;48.030;11.598;2024-01-30T11:04:37;7.90;98.60
16513;DHT22;8369;48.030;11.598;2024-01-30T11:07:17;7.90;99.90
16513;DHT22;8369;48.030;11.598;2024-01-30T11:09:59;7.90;99.90
16513;DHT22;8369;48.030;11.598;2024-01-30T11:12:32;7.90;99.90
16513;DHT22;8369;48.030;11.598;2024-01-30T11:15:04;8.00;99.90
16513;DHT22;8369;48.030;11.598;2024-01-30T11:17:55;8.00;99.90
16513;DHT22;8369;48.030;11.598;2024-01-30T11:20:27;8.10;99.90
16513;DHT22;8369;48.030;11.598;2024-01-30T11:22:56;8.10;99.90
16513;DHT22;8369;48.030;11.598;2024-01-30T11:25:26;8.10;99.90
16513;DHT22;8369;48.030;11.598;2024-01-30T11:27:55;8.20;99.20
16513;DHT22;8369;48.030;11.598;2024-01-30T11:30:26;8.20;98.80
16513;DHT22;8369;48.030;11.598;2024-01-30T11:35:42;8.20;99.90
16513;DHT22;8369;48.030;11.598;2024-01-30T11:38:14;8.20;99.90
16513;DHT22;8369;48.030;11.598;2024-01-30T11:40:46;8.20;99.90
16513;DHT22;8369;48.030;11.598;2024-01-30T11:43:17;8.20;99.90
16513;DHT22;8369;48.030;11.598;2024-01-30T11:45:46;8.20;99.90
16513;DHT22;8369;48.030;11.598;2024-01-30T11:48:17;8.30;99.40
16513;DHT22;8369;48.030;11.598;2024-01-30T11:50:50;8.40;98.50
16513;DHT22;8369;48.030;11.598;2024-01-30T11:53:20;8.50;99.40
16513;DHT22;8369;48.030;11.598;2024-01-30T11:55:53;8.60;99.20
16513;DHT22;8369;48.030;11.598;2024-01-30T11:58:20;8.70;98.90
16513;DHT22;8369;48.030;11.598;2024-01-30T12:00:56;8.80;98.30
16513;DHT22;8369;48.030;11.598;2024-01-30T12:03:29;8.90;98.20
16513;DHT22;8369;48.030;11.598;2024-01-30T12:06:00;9.00;98.50
16513;DHT22;8369;48.030;11.598;2024-01-30T12:08:30;9.10;98.90
16513;DHT22;8369;48.030;11.598;2024-01-30T12:10:59;9.10;98.50
16513;DHT22;8369;48.030;11.598;2024-01-30T12:13:33;9.20;96.40
16513;DHT22;8369;48.030;11.598;2024-01-30T12:16:01;9.20;96.80
16513;DHT22;8369;48.030;11.598;2024-01-30T12:18:28;9.30;97.20
16513;DHT22;8369;48.030;11.598;2024-01-30T12:21:00;9.40;96.90
16513;DHT22;8369;48.030;11.598;2024-01-30T12:23:29;9.40;96.90
16513;DHT22;8369;48.030;11.598;2024-01-30T12:25:58;9.50;96.30
16513;DHT22;8369;48.030;11.598;2024-01-30T12:28:25;9.50;96.20
16513;DHT22;8369;48.030;11.598;2024-01-30T12:30:56;9.50;96.00
16513;DHT22;8369;48.030;11.598;2024-01-30T12:33:26;9.50;96.20
16513;DHT22;8369;48.030;11.598;2024-01-30T12:35:54;9.60;96.00
16513;DHT22;8369;48.030;11.598;2024-01-30T12:38:19;9.60;96.00
16513;DHT22;8369;48.030;11.598;2024-01-30T12:40:45;9.60;96.10
16513;DHT22;8369;48.030;11.598;2024-01-30T12:43:14;9.60;96.20
16513;DHT22;8369;48.030;11.598;2024-01-30T12:45:41;9.60;96.00
16513;DHT22;8369;48.030;11.598;2024-01-30T12:48:08;9.60;96.00
16513;DHT22;8369;48.030;11.598;2024-01-30T12:50:38;9.50;96.30
16513;DHT22;8369;48.030;11.598;2024-01-30T12:53:07;9.50;96.50
16513;DHT22;8369;48.030;11.598;2024-01-30T12:55:35;9.50;96.50
16513;DHT22;8369;48.030;11.598;2024-01-30T12:58:02;9.40;96.50
16513;DHT22;8369;48.030;11.598;2024-01-30T13:00:29;9.40;96.00
16513;DHT22;8369;48.030;11.598;2024-01-30T13:02:55;9.40;96.30
16513;DHT22;8369;48.030;11.598;2024-01-30T13:05:22;9.30;96.70
16513;DHT22;8369;48.030;11.598;2024-01-30T13:07:49;9.30;96.90
16513;DHT22;8369;48.030;11.598;2024-01-30T13:10:16;9.20;97.10
16513;DHT22;8369;48.030;11.598;2024-01-30T13:12:42;9.20;97.30
16513;DHT22;8369;48.030;11.598;2024-01-30T13:15:09;9.20;97.40
16513;DHT22;8369;48.030;11.598;2024-01-30T13:17:37;9.20;97.50
16513;DHT22;8369;48.030;11.598;2024-01-30T13:20:04;9.20;97.20
16513;DHT22;8369;48.030;11.598;2024-01-30T13:22:31;9.30;97.00
16513;DHT22;8369;48.030;11.598;2024-01-30T13:24:58;9.30;96.80
16513;DHT22;8369;48.030;11.598;2024-01-30T13:27:24;9.40;94.40
16513;DHT22;8369;48.030;11.598;2024-01-30T13:29:50;9.40;94.90
16513;DHT22;8369;48.030;11.598;2024-01-30T13:32:16;9.40;95.20
16513;DHT22;8369;48.030;11.598;2024-01-30T13:34:43;9.40;95.40
16513;DHT22;8369;48.030;11.598;2024-01-30T13:37:09;9.40;95.60
16513;DHT22;8369;48.030;11.598;2024-01-30T13:39:35;9.50;95.30
16513;DHT22;8369;48.030;11.598;2024-01-30T13:42:01;9.50;94.70
16513;DHT22;8369;48.030;11.598;2024-01-30T13:44:28;9.50;94.50
16513;DHT22;8369;48.030;11.598;2024-01-30T13:46:54;9.50;94.20
16513;DHT22;8369;48.030;11.598;2024-01-30T13:49:21;9.50;94.00
16513;DHT22;8369;48.030;11.598;2024-01-30T13:51:47;9.50;94.00
16513;DHT22;8369;48.030;11.598;2024-01-30T13:54:13;9.50;94.20
16513;DHT22;8369;48.030;11.598;2024-01-30T13:56:41;9.50;94.00
16513;DHT22;8369;48.030;11.598;2024-01-30T13:59:07;9.50;93.50
16513;DHT22;8369;48.030;11.598;2024-01-30T14:01:33;9.50;93.10
16513;DHT22;8369;48.030;11.598;2024-01-30T14:03:59;9.50;92.80
16513;DHT22;8369;48.030;11.598;2024-01-30T14:06:26;9.50;92.70
16513;DHT22;8369;48.030;11.598;2024-01-30T14:08:52;9.50;92.30
16513;DHT22;8369;48.030;11.598;2024-01-30T14:11:19;9.40;92.40
16513;DHT22;8369;48.030;11.598;2024-01-30T14:13:45;9.40;92.30
16513;DHT22;8369;48.030;11.598;2024-01-30T14:16:11;9.40;92.10
16513;DHT22;8369;48.030;11.598;2024-01-30T14:18:37;9.40;92.00
16513;DHT22;8369;48.030;11.598;2024-01-30T14:21:04;9.40;92.00
16513;DHT22;8369;48.030;11.598;2024-01-30T14:23:30;9.30;92.40
16513;DHT22;8369;48.030;11.598;2024-01-30T14:25:56;9.30;93.30
16513;DHT22;8369;48.030;11.598;2024-01-30T14:28:25;9.30;94.10
16513;DHT22;8369;48.030;11.598;2024-01-30T14:30:55;9.20;94.90
16513;DHT22;8369;48.030;11.598;2024-01-30T14:33:21;9.20;95.80
16513;DHT22;8369;48.030;11.598;2024-01-30T14:35:47;9.10;96.40
16513;DHT22;8369;48.030;11.598;2024-01-30T14:38:14;9.00;97.20
16513;DHT22;8369;48.030;11.598;2024-01-30T14:40:41;9.00;98.30
16513;DHT22;8369;48.030;11.598;2024-01-30T14:43:07;8.90;99.00
16513;DHT22;8369;48.030;11.598;2024-01-30T14:45:34;8.80;99.80
16513;DHT22;8369;48.030;11.598;2024-01-30T14:48:00;8.70;99.90
16513;DHT22;8369;48.030;11.598;2024-01-30T14:50:28;8.70;99.90
16513;DHT22;8369;48.030;11.598;2024-01-30T14:52:54;8.60;99.90
16513;DHT22;8369;48.030;11.598;2024-01-30T14:55:23;8.50;98.50
16513;DHT22;8369;48.030;11.598;2024-01-30T14:57:50;8.50;99.40
16513;DHT22;8369;48.030;11.598;2024-01-30T15:00:16;8.50;99.30
16513;DHT22;8369;48.030;11.598;2024-01-30T15:02:43;8.40;99.20
16513;DHT22;8369;48.030;11.598;2024-01-30T15:05:10;8.40;99.10
16513;DHT22;8369;48.030;11.598;2024-01-30T15:07:37;8.40;99.10
16513;DHT22;8369;48.030;11.598;2024-01-30T15:10:04;8.40;98.40
16513;DHT22;8369;48.030;11.598;2024-01-30T15:12:30;8.40;98.10
16513;DHT22;8369;48.030;11.598;2024-01-30T15:14:57;8.30;98.10
16513;DHT22;8369;48.030;11.598;2024-01-30T15:17:23;8.30;98.00
16513;DHT22;8369;48.030;11.598;2024-01-30T15:19:49;8.30;97.90
16513;DHT22;8369;48.030;11.598;2024-01-30T15:22:20;8.30;97.80
16513;DHT22;8369;48.030;11.598;2024-01-30T15:24:46;8.20;98.00
16513;DHT22;8369;48.030;11.598;2024-01-30T15:27:13;8.20;98.30
16513;DHT22;8369;48.030;11.598;2024-01-30T15:29:40;8.10;98.70
16513;DHT22;8369;48.030;11.598;2024-01-30T15:32:07;8.00;99.00
16513;DHT22;8369;48.030;11.598;2024-01-30T15:34:34;8.00;99.30
16513;DHT22;8369;48.030;11.598;2024-01-30T15:37:01;7.90;99.30
16513;DHT22;8369;48.030;11.598;2024-01-30T15:39:29;7.90;99.40
16513;DHT22;8369;48.030;11.598;2024-01-30T15:41:56;7.80;99.60
16513;DHT22;8369;48.030;11.598;2024-01-30T15:44:25;7.70;99.90